sensor_id;sensor_type;location;lat;lon;timestamp;P1;durP1;ratioP1;P2;durP2;ratioP2
30080;SDS011;16902;50.816;12.828;2023-02-03T00:03:36;10.17;;;5.30;;
30080;SDS011;16902;50.816;12.828;2023-02-03T00:08:38;5.13;;;4.27;;
30080;SDS011;16902;50.816;12.828;2023-02-03T00:13:40;7.68;;;4.97;;
30080;SDS011;16902;50.816;12.828;2023-02-03T00:18:42;6.60;;;5.03;;
30080;SDS011;16902;50.816;12.828;2023-02-03T00:23:44;7.37;;;5.23;;
30080;SDS011;16902;50.816;12.828;2023-02-03T00:28:46;9.17;;;4.67;;
30080;SDS011;16902;50.816;12.828;2023-02-03T00:33:52;8.10;;;4.90;;
30080;SDS011;16902;50.816;12.828;2023-02-03T00:38:59;7.80;;;4.70;;
30080;SDS011;16902;50.816;12.828;2023-02-03T00:44:01;7.80;;;4.63;;
30080;SDS011;16902;50.816;12.828;2023-02-03T00:49:03;10.00;;;4.90;;
30080;SDS011;16902;50.816;12.828;2023-02-03T00:54:05;7.40;;;4.67;;
30080;SDS011;16902;50.816;12.828;2023-02-03T00:59:07;6.40;;;4.80;;
30080;SDS011;16902;50.816;12.828;2023-02-03T01:04:09;7.83;;;4.53;;
30080;SDS011;16902;50.816;12.828;2023-02-03T01:09:11;5.67;;;4.23;;
30080;SDS011;16902;50.816;12.828;2023-02-03T01:14:13;7.03;;;5.33;;
30080;SDS011;16902;50.816;12.828;2023-02-03T01:19:15;7.70;;;5.30;;
30080;SDS011;16902;50.816;12.828;2023-02-03T01:24:17;7.57;;;5.20;;
30080;SDS011;16902;50.816;12.828;2023-02-03T01:29:19;6.82;;;4.90;;
30080;SDS011;16902;50.816;12.828;2023-02-03T01:34:23;5.15;;;4.30;;
30080;SDS011;16902;50.816;12.828;2023-02-03T01:39:24;4.88;;;4.30;;
30080;SDS011;16902;50.816;12.828;2023-02-03T01:45:10;5.43;;;4.28;;
30080;SDS011;16902;50.816;12.828;2023-02-03T01:50:13;4.30;;;3.90;;
30080;SDS011;16902;50.816;12.828;2023-02-03T01:55:18;4.47;;;3.97;;
30080;SDS011;16902;50.816;12.828;2023-02-03T02:00:23;5.50;;;3.92;;
30080;SDS011;16902;50.816;12.828;2023-02-03T02:10:40;5.83;;;4.57;;
30080;SDS011;16902;50.816;12.828;2023-02-03T02:16:05;6.45;;;5.00;;
30080;SDS011;16902;50.816;12.828;2023-02-03T02:31:53;9.60;;;6.20;;
30080;SDS011;16902;50.816;12.828;2023-02-03T02:37:02;7.18;;;5.53;;
30080;SDS011;16902;50.816;12.828;2023-02-03T02:47:37;7.18;;;4.28;;
30080;SDS011;16902;50.816;12.828;2023-02-03T02:52:40;4.97;;;3.85;;
30080;SDS011;16902;50.816;12.828;2023-02-03T02:57:46;7.45;;;4.80;;
30080;SDS011;16902;50.816;12.828;2023-02-03T03:02:52;5.30;;;4.30;;
30080;SDS011;16902;50.816;12.828;2023-02-03T03:07:57;5.50;;;4.20;;
30080;SDS011;16902;50.816;12.828;2023-02-03T03:13:04;6.00;;;4.03;;
30080;SDS011;16902;50.816;12.828;2023-02-03T03:23:49;5.97;;;4.10;;
30080;SDS011;16902;50.816;12.828;2023-02-03T03:34:19;5.68;;;4.13;;
30080;SDS011;16902;50.816;12.828;2023-02-03T03:39:23;5.18;;;4.35;;
30080;SDS011;16902;50.816;12.828;2023-02-03T03:44:33;5.75;;;3.70;;
30080;SDS011;16902;50.816;12.828;2023-02-03T03:49:40;6.18;;;4.07;;
30080;SDS011;16902;50.816;12.828;2023-02-03T03:54:45;7.53;;;5.05;;
30080;SDS011;16902;50.816;12.828;2023-02-03T03:59:49;8.25;;;5.38;;
30080;SDS011;16902;50.816;12.828;2023-02-03T04:04:52;8.63;;;5.97;;
30080;SDS011;16902;50.816;12.828;2023-02-03T04:09:55;9.38;;;6.38;;
30080;SDS011;16902;50.816;12.828;2023-02-03T04:14:57;7.63;;;6.05;;
30080;SDS011;16902;50.816;12.828;2023-02-03T04:19:58;8.98;;;6.90;;
30080;SDS011;16902;50.816;12.828;2023-02-03T04:25:00;9.85;;;7.30;;
30080;SDS011;16902;50.816;12.828;2023-02-03T04:30:02;10.35;;;7.43;;
30080;SDS011;16902;50.816;12.828;2023-02-03T04:35:05;10.98;;;7.82;;
30080;SDS011;16902;50.816;12.828;2023-02-03T04:40:08;11.73;;;8.25;;
30080;SDS011;16902;50.816;12.828;2023-02-03T04:45:11;10.18;;;7.80;;
30080;SDS011;16902;50.816;12.828;2023-02-03T04:50:13;10.55;;;7.40;;
30080;SDS011;16902;50.816;12.828;2023-02-03T04:55:15;13.35;;;8.57;;
30080;SDS011;16902;50.816;12.828;2023-02-03T05:00:17;11.45;;;8.55;;
30080;SDS011;16902;50.816;12.828;2023-02-03T05:05:19;13.57;;;9.10;;
30080;SDS011;16902;50.816;12.828;2023-02-03T05:10:21;14.35;;;7.93;;
30080;SDS011;16902;50.816;12.828;2023-02-03T05:15:23;17.65;;;9.20;;
30080;SDS011;16902;50.816;12.828;2023-02-03T05:20:25;12.32;;;8.70;;
30080;SDS011;16902;50.816;12.828;2023-02-03T05:25:29;14.68;;;9.70;;
30080;SDS011;16902;50.816;12.828;2023-02-03T05:30:31;14.95;;;9.65;;
30080;SDS011;16902;50.816;12.828;2023-02-03T05:35:33;14.30;;;9.13;;
30080;SDS011;16902;50.816;12.828;2023-02-03T05:40:35;12.55;;;8.23;;
30080;SDS011;16902;50.816;12.828;2023-02-03T05:45:58;14.10;;;9.05;;
30080;SDS011;16902;50.816;12.828;2023-02-03T05:51:01;12.15;;;9.43;;
30080;SDS011;16902;50.816;12.828;2023-02-03T05:56:03;12.75;;;8.35;;
30080;SDS011;16902;50.816;12.828;2023-02-03T06:01:05;15.10;;;8.35;;
30080;SDS011;16902;50.816;12.828;2023-02-03T06:06:07;12.98;;;9.13;;
30080;SDS011;16902;50.816;12.828;2023-02-03T06:11:09;11.05;;;8.98;;
30080;SDS011;16902;50.816;12.828;2023-02-03T06:16:12;13.73;;;8.27;;
30080;SDS011;16902;50.816;12.828;2023-02-03T06:21:14;10.55;;;6.65;;
30080;SDS011;16902;50.816;12.828;2023-02-03T06:26:15;10.15;;;8.18;;
30080;SDS011;16902;50.816;12.828;2023-02-03T06:31:17;9.65;;;7.18;;
30080;SDS011;16902;50.816;12.828;2023-02-03T06:36:19;8.52;;;7.30;;
30080;SDS011;16902;50.816;12.828;2023-02-03T06:41:21;9.07;;;6.47;;
30080;SDS011;16902;50.816;12.828;2023-02-03T06:46:27;8.20;;;5.75;;
30080;SDS011;16902;50.816;12.828;2023-02-03T06:51:30;6.40;;;5.68;;
30080;SDS011;16902;50.816;12.828;2023-02-03T06:56:32;6.70;;;5.10;;
30080;SDS011;16902;50.816;12.828;2023-02-03T07:01:35;7.45;;;5.18;;
30080;SDS011;16902;50.816;12.828;2023-02-03T07:06:37;5.93;;;4.38;;
30080;SDS011;16902;50.816;12.828;2023-02-03T07:11:39;4.32;;;3.67;;
30080;SDS011;16902;50.816;12.828;2023-02-03T07:16:41;4.85;;;3.80;;
30080;SDS011;16902;50.816;12.828;2023-02-03T07:21:42;4.13;;;2.80;;
30080;SDS011;16902;50.816;12.828;2023-02-03T07:26:44;3.17;;;2.88;;
30080;SDS011;16902;50.816;12.828;2023-02-03T07:31:46;3.58;;;3.28;;
30080;SDS011;16902;50.816;12.828;2023-02-03T07:36:48;4.15;;;2.90;;
30080;SDS011;16902;50.816;12.828;2023-02-03T07:41:50;3.50;;;3.10;;
30080;SDS011;16902;50.816;12.828;2023-02-03T07:46:54;3.53;;;3.22;;
30080;SDS011;16902;50.816;12.828;2023-02-03T07:51:56;4.57;;;3.10;;
30080;SDS011;16902;50.816;12.828;2023-02-03T07:56:58;5.00;;;3.40;;
30080;SDS011;16902;50.816;12.828;2023-02-03T08:02:00;3.72;;;3.35;;
30080;SDS011;16902;50.816;12.828;2023-02-03T08:07:02;5.55;;;3.50;;
30080;SDS011;16902;50.816;12.828;2023-02-03T08:12:04;6.82;;;4.55;;
30080;SDS011;16902;50.816;12.828;2023-02-03T08:17:06;4.85;;;4.00;;
30080;SDS011;16902;50.816;12.828;2023-02-03T08:22:09;4.40;;;3.78;;
30080;SDS011;16902;50.816;12.828;2023-02-03T08:27:17;5.63;;;4.38;;
30080;SDS011;16902;50.816;12.828;2023-02-03T08:32:21;8.63;;;4.13;;
30080;SDS011;16902;50.816;12.828;2023-02-03T08:37:23;4.70;;;4.20;;
30080;SDS011;16902;50.816;12.828;2023-02-03T08:42:25;6.40;;;4.63;;
30080;SDS011;16902;50.816;12.828;2023-02-03T08:47:28;4.07;;;3.67;;
30080;SDS011;16902;50.816;12.828;2023-02-03T08:52:30;4.93;;;3.67;;
30080;SDS011;16902;50.816;12.828;2023-02-03T08:57:35;5.63;;;4.20;;
30080;SDS011;16902;50.816;12.828;2023-02-03T09:02:37;6.55;;;4.63;;
30080;SDS011;16902;50.816;12.828;2023-02-03T09:07:39;6.28;;;3.80;;
30080;SDS011;16902;50.816;12.828;2023-02-03T09:12:41;5.88;;;4.65;;
30080;SDS011;16902;50.816;12.828;2023-02-03T09:17:42;6.95;;;3.85;;
30080;SDS011;16902;50.816;12.828;2023-02-03T09:22:44;8.23;;;4.80;;
30080;SDS011;16902;50.816;12.828;2023-02-03T09:27:46;4.85;;;4.20;;
30080;SDS011;16902;50.816;12.828;2023-02-03T09:32:51;5.30;;;4.05;;
30080;SDS011;16902;50.816;12.828;2023-02-03T09:37:54;6.78;;;3.72;;
30080;SDS011;16902;50.816;12.828;2023-02-03T09:48:15;5.15;;;4.38;;
30080;SDS011;16902;50.816;12.828;2023-02-03T09:53:30;5.65;;;4.80;;
30080;SDS011;16902;50.816;12.828;2023-02-03T09:58:45;6.00;;;4.22;;
30080;SDS011;16902;50.816;12.828;2023-02-03T10:19:25;6.88;;;4.65;;
30080;SDS011;16902;50.816;12.828;2023-02-03T10:24:38;7.72;;;4.43;;
30080;SDS011;16902;50.816;12.828;2023-02-03T10:29:44;5.18;;;4.28;;
30080;SDS011;16902;50.816;12.828;2023-02-03T10:34:51;6.40;;;4.63;;
30080;SDS011;16902;50.816;12.828;2023-02-03T10:39:53;6.70;;;4.97;;
30080;SDS011;16902;50.816;12.828;2023-02-03T10:44:57;7.07;;;4.40;;
30080;SDS011;16902;50.816;12.828;2023-02-03T10:50:04;8.98;;;5.63;;
30080;SDS011;16902;50.816;12.828;2023-02-03T11:00:27;8.82;;;5.47;;
30080;SDS011;16902;50.816;12.828;2023-02-03T11:05:31;5.57;;;4.95;;
30080;SDS011;16902;50.816;12.828;2023-02-03T11:10:36;6.97;;;4.68;;
30080;SDS011;16902;50.816;12.828;2023-02-03T11:21:09;6.55;;;4.43;;
30080;SDS011;16902;50.816;12.828;2023-02-03T11:26:16;6.38;;;4.78;;
30080;SDS011;16902;50.816;12.828;2023-02-03T11:31:24;5.20;;;4.18;;
30080;SDS011;16902;50.816;12.828;2023-02-03T11:36:29;8.70;;;4.10;;
30080;SDS011;16902;50.816;12.828;2023-02-03T11:41:35;5.82;;;4.10;;
30080;SDS011;16902;50.816;12.828;2023-02-03T11:46:38;5.78;;;4.13;;
30080;SDS011;16902;50.816;12.828;2023-02-03T11:56:54;6.35;;;4.13;;
30080;SDS011;16902;50.816;12.828;2023-02-03T12:13:29;5.30;;;3.72;;
30080;SDS011;16902;50.816;12.828;2023-02-03T12:29:18;5.75;;;3.78;;
30080;SDS011;16902;50.816;12.828;2023-02-03T12:34:29;4.45;;;3.95;;
30080;SDS011;16902;50.816;12.828;2023-02-03T12:39:39;4.45;;;3.70;;
30080;SDS011;16902;50.816;12.828;2023-02-03T12:44:47;4.82;;;3.47;;
30080;SDS011;16902;50.816;12.828;2023-02-03T12:55:49;7.55;;;4.57;;
30080;SDS011;16902;50.816;12.828;2023-02-03T13:01:01;4.25;;;3.50;;
30080;SDS011;16902;50.816;12.828;2023-02-03T13:06:15;3.70;;;3.40;;
30080;SDS011;16902;50.816;12.828;2023-02-03T13:16:44;7.00;;;2.85;;
30080;SDS011;16902;50.816;12.828;2023-02-03T13:21:53;3.25;;;2.95;;
30080;SDS011;16902;50.816;12.828;2023-02-03T13:27:03;3.22;;;2.92;;
30080;SDS011;16902;50.816;12.828;2023-02-03T13:38:18;5.55;;;3.10;;
30080;SDS011;16902;50.816;12.828;2023-02-03T13:43:11;3.50;;;3.13;;
30080;SDS011;16902;50.816;12.828;2023-02-03T13:48:37;4.57;;;3.15;;
30080;SDS011;16902;50.816;12.828;2023-02-03T13:53:39;4.00;;;3.15;;
30080;SDS011;16902;50.816;12.828;2023-02-03T13:58:46;4.90;;;3.63;;
30080;SDS011;16902;50.816;12.828;2023-02-03T14:04:04;3.08;;;2.70;;
30080;SDS011;16902;50.816;12.828;2023-02-03T14:09:32;3.83;;;2.53;;
30080;SDS011;16902;50.816;12.828;2023-02-03T14:24:50;2.97;;;1.73;;
30080;SDS011;16902;50.816;12.828;2023-02-03T14:35:14;2.63;;;1.70;;
30080;SDS011;16902;50.816;12.828;2023-02-03T14:40:28;3.25;;;2.10;;
30080;SDS011;16902;50.816;12.828;2023-02-03T15:02:10;5.85;;;2.53;;
30080;SDS011;16902;50.816;12.828;2023-02-03T15:12:45;5.57;;;2.67;;
30080;SDS011;16902;50.816;12.828;2023-02-03T15:17:53;9.00;;;2.90;;
30080;SDS011;16902;50.816;12.828;2023-02-03T15:22:56;9.02;;;3.05;;
30080;SDS011;16902;50.816;12.828;2023-02-03T15:28:12;22.95;;;12.48;;
30080;SDS011;16902;50.816;12.828;2023-02-03T15:33:19;8.45;;;3.25;;
30080;SDS011;16902;50.816;12.828;2023-02-03T15:38:30;9.57;;;6.18;;
30080;SDS011;16902;50.816;12.828;2023-02-03T15:43:40;9.80;;;5.38;;
30080;SDS011;16902;50.816;12.828;2023-02-03T15:54:05;17.90;;;8.13;;
30080;SDS011;16902;50.816;12.828;2023-02-03T15:59:21;11.75;;;6.25;;
30080;SDS011;16902;50.816;12.828;2023-02-03T16:04:28;10.48;;;4.50;;
30080;SDS011;16902;50.816;12.828;2023-02-03T16:09:32;19.50;;;8.48;;
30080;SDS011;16902;50.816;12.828;2023-02-03T16:14:39;19.70;;;8.45;;
30080;SDS011;16902;50.816;12.828;2023-02-03T16:19:42;12.70;;;4.75;;
30080;SDS011;16902;50.816;12.828;2023-02-03T16:24:51;11.65;;;3.20;;
30080;SDS011;16902;50.816;12.828;2023-02-03T16:35:23;9.20;;;3.10;;
30080;SDS011;16902;50.816;12.828;2023-02-03T16:40:44;13.88;;;3.70;;
30080;SDS011;16902;50.816;12.828;2023-02-03T16:46:08;16.35;;;3.53;;
30080;SDS011;16902;50.816;12.828;2023-02-03T16:51:40;10.82;;;4.32;;
30080;SDS011;16902;50.816;12.828;2023-02-03T16:56:42;13.80;;;3.80;;
30080;SDS011;16902;50.816;12.828;2023-02-03T17:01:44;9.02;;;3.55;;
30080;SDS011;16902;50.816;12.828;2023-02-03T17:06:46;10.50;;;3.60;;
30080;SDS011;16902;50.816;12.828;2023-02-03T17:11:51;10.45;;;3.50;;
30080;SDS011;16902;50.816;12.828;2023-02-03T17:16:53;17.65;;;4.15;;
30080;SDS011;16902;50.816;12.828;2023-02-03T17:21:55;8.95;;;3.45;;
30080;SDS011;16902;50.816;12.828;2023-02-03T17:26:57;12.57;;;3.72;;
30080;SDS011;16902;50.816;12.828;2023-02-03T17:31:59;14.13;;;4.28;;
30080;SDS011;16902;50.816;12.828;2023-02-03T17:37:01;12.25;;;3.88;;
30080;SDS011;16902;50.816;12.828;2023-02-03T17:42:03;16.58;;;4.22;;
30080;SDS011;16902;50.816;12.828;2023-02-03T17:47:22;12.15;;;4.28;;
30080;SDS011;16902;50.816;12.828;2023-02-03T17:52:41;13.60;;;3.92;;
30080;SDS011;16902;50.816;12.828;2023-02-03T17:58:01;13.10;;;4.13;;
30080;SDS011;16902;50.816;12.828;2023-02-03T18:03:04;16.73;;;5.00;;
30080;SDS011;16902;50.816;12.828;2023-02-03T18:08:06;14.20;;;4.95;;
30080;SDS011;16902;50.816;12.828;2023-02-03T18:13:16;13.30;;;5.10;;
30080;SDS011;16902;50.816;12.828;2023-02-03T18:18:18;11.45;;;4.15;;
30080;SDS011;16902;50.816;12.828;2023-02-03T18:23:21;16.48;;;5.25;;
30080;SDS011;16902;50.816;12.828;2023-02-03T18:28:23;14.30;;;4.00;;
30080;SDS011;16902;50.816;12.828;2023-02-03T18:33:26;10.85;;;4.90;;
30080;SDS011;16902;50.816;12.828;2023-02-03T18:38:29;17.35;;;6.10;;
30080;SDS011;16902;50.816;12.828;2023-02-03T18:43:34;16.63;;;4.28;;
30080;SDS011;16902;50.816;12.828;2023-02-03T18:48:36;13.38;;;4.85;;
30080;SDS011;16902;50.816;12.828;2023-02-03T18:53:38;10.55;;;3.92;;
30080;SDS011;16902;50.816;12.828;2023-02-03T18:58:40;11.40;;;4.20;;
30080;SDS011;16902;50.816;12.828;2023-02-03T19:03:42;12.35;;;3.75;;
30080;SDS011;16902;50.816;12.828;2023-02-03T19:08:44;11.23;;;4.00;;
30080;SDS011;16902;50.816;12.828;2023-02-03T19:13:46;13.27;;;3.85;;
30080;SDS011;16902;50.816;12.828;2023-02-03T19:18:48;13.68;;;4.13;;
30080;SDS011;16902;50.816;12.828;2023-02-03T19:23:50;12.43;;;3.80;;
30080;SDS011;16902;50.816;12.828;2023-02-03T19:28:52;14.98;;;4.78;;
30080;SDS011;16902;50.816;12.828;2023-02-03T19:33:58;12.13;;;4.90;;
30080;SDS011;16902;50.816;12.828;2023-02-03T19:39:02;12.50;;;4.95;;
30080;SDS011;16902;50.816;12.828;2023-02-03T19:44:04;12.38;;;5.03;;
30080;SDS011;16902;50.816;12.828;2023-02-03T19:49:08;11.32;;;5.43;;
30080;SDS011;16902;50.816;12.828;2023-02-03T19:54:15;15.05;;;4.75;;
30080;SDS011;16902;50.816;12.828;2023-02-03T19:59:17;17.77;;;4.43;;
30080;SDS011;16902;50.816;12.828;2023-02-03T20:04:19;11.00;;;4.63;;
30080;SDS011;16902;50.816;12.828;2023-02-03T20:09:21;15.10;;;4.60;;
30080;SDS011;16902;50.816;12.828;2023-02-03T20:14:23;10.88;;;5.05;;
30080;SDS011;16902;50.816;12.828;2023-02-03T20:19:25;15.30;;;4.93;;
30080;SDS011;16902;50.816;12.828;2023-02-03T20:24:26;12.27;;;5.15;;
30080;SDS011;16902;50.816;12.828;2023-02-03T20:29:28;11.50;;;4.22;;
30080;SDS011;16902;50.816;12.828;2023-02-03T20:34:30;12.45;;;4.63;;
30080;SDS011;16902;50.816;12.828;2023-02-03T20:39:32;12.35;;;4.20;;
30080;SDS011;16902;50.816;12.828;2023-02-03T20:44:34;11.85;;;4.13;;
30080;SDS011;16902;50.816;12.828;2023-02-03T20:49:36;17.20;;;4.43;;
30080;SDS011;16902;50.816;12.828;2023-02-03T20:54:38;13.55;;;5.07;;
30080;SDS011;16902;50.816;12.828;2023-02-03T20:59:41;12.38;;;4.05;;
30080;SDS011;16902;50.816;12.828;2023-02-03T21:04:44;15.05;;;4.10;;
30080;SDS011;16902;50.816;12.828;2023-02-03T21:09:58;12.02;;;3.85;;
30080;SDS011;16902;50.816;12.828;2023-02-03T21:15:01;14.23;;;4.32;;
30080;SDS011;16902;50.816;12.828;2023-02-03T21:20:05;21.15;;;4.40;;
30080;SDS011;16902;50.816;12.828;2023-02-03T21:25:29;11.70;;;4.82;;
30080;SDS011;16902;50.816;12.828;2023-02-03T21:30:33;15.48;;;3.63;;
30080;SDS011;16902;50.816;12.828;2023-02-03T21:35:35;12.55;;;4.20;;
30080;SDS011;16902;50.816;12.828;2023-02-03T21:40:38;13.43;;;3.78;;
30080;SDS011;16902;50.816;12.828;2023-02-03T21:45:40;15.27;;;4.15;;
30080;SDS011;16902;50.816;12.828;2023-02-03T21:50:43;15.95;;;4.20;;
30080;SDS011;16902;50.816;12.828;2023-02-03T21:55:44;19.35;;;3.80;;
30080;SDS011;16902;50.816;12.828;2023-02-03T22:00:46;17.67;;;3.92;;
30080;SDS011;16902;50.816;12.828;2023-02-03T22:05:49;13.48;;;3.67;;
30080;SDS011;16902;50.816;12.828;2023-02-03T22:10:51;19.55;;;3.85;;
30080;SDS011;16902;50.816;12.828;2023-02-03T22:15:53;15.18;;;3.83;;
30080;SDS011;16902;50.816;12.828;2023-02-03T22:20:54;17.25;;;3.92;;
30080;SDS011;16902;50.816;12.828;2023-02-03T22:25:56;15.48;;;3.72;;
30080;SDS011;16902;50.816;12.828;2023-02-03T22:30:58;14.68;;;3.83;;
30080;SDS011;16902;50.816;12.828;2023-02-03T22:36:00;15.10;;;3.25;;
30080;SDS011;16902;50.816;12.828;2023-02-03T22:41:04;18.15;;;3.38;;
30080;SDS011;16902;50.816;12.828;2023-02-03T22:46:06;10.10;;;2.85;;
30080;SDS011;16902;50.816;12.828;2023-02-03T22:51:08;8.68;;;3.20;;
30080;SDS011;16902;50.816;12.828;2023-02-03T22:56:10;11.05;;;3.13;;
30080;SDS011;16902;50.816;12.828;2023-02-03T23:01:12;9.40;;;3.28;;
30080;SDS011;16902;50.816;12.828;2023-02-03T23:06:14;10.30;;;3.47;;
30080;SDS011;16902;50.816;12.828;2023-02-03T23:11:16;17.58;;;4.35;;
30080;SDS011;16902;50.816;12.828;2023-02-03T23:16:18;16.33;;;4.38;;
30080;SDS011;16902;50.816;12.828;2023-02-03T23:21:20;15.02;;;3.65;;
30080;SDS011;16902;50.816;12.828;2023-02-03T23:26:21;18.70;;;4.80;;
30080;SDS011;16902;50.816;12.828;2023-02-03T23:31:23;12.88;;;3.45;;
30080;SDS011;16902;50.816;12.828;2023-02-03T23:36:25;15.15;;;3.45;;
30080;SDS011;16902;50.816;12.828;2023-02-03T23:41:27;12.75;;;3.17;;
30080;SDS011;16902;50.816;12.828;2023-02-03T23:46:29;11.65;;;3.58;;
30080;SDS011;16902;50.816;12.828;2023-02-03T23:51:31;14.23;;;3.65;;
30080;SDS011;16902;50.816;12.828;2023-02-03T23:56:33;11.02;;;3.08;;
